首页
METAR-TAF:

METAR-TAF

机场 :

长春, 中华人民共和国

长春龙嘉国际机场

纬度: 43-54N, 经度: 125-13E, 海拔: 238米

当前天气观测

该预报发布于10分钟前的00:00 UTC
风速2节,风向多变
温度 -14°C
湿度 66%
气压 1026 hPa
能見度: 4000

METAR: ZYCC 250000Z VRB01MPS 4000 FU NSC M14/M19 Q1026 NOSIG

时间: 08:10 (00:10 UTC)

预报

该预报发布于5小时和2分钟前的19:08 UTC
预报有效从25日的 00点(UTC)到 25日的 24点(UTC)
风速8节,风向
能見度: 5000
少量云层高于2300英尺
轻雾

TAF: ZYCC 241908Z 2500/2524 17004MPS 5000 BR FEW023 TXM04/06Z TNM16/21Z

超过4000个机场的气象观测和天气预报(METAR&TAF报告)。

可查询的气象台以黄色和红色小点在地图上表示。

将鼠标移到小点上方,可查看气象台名称。

然后点击查看天气观测和预报。

如需切换地图:点击带黑十字的绿色按钮放大地图;点击带横线的绿色按钮缩小地图;或者点击绿色箭头查看邻近地区的地图。


METAR-TAF: